createdAt,value
2023-05-10T16:20:10.555Z,2.3687
2023-05-10T16:21:04.202Z,2.9686
2023-05-10T16:22:06.746Z,2.7494
2023-05-10T16:23:09.338Z,2.9415
2023-05-10T16:24:11.889Z,3.0086
2023-05-10T16:25:14.494Z,3.1696
2023-05-10T16:26:17.048Z,2.7220
2023-05-10T16:27:19.645Z,3.1633
2023-05-10T16:28:22.182Z,3.1093
2023-05-10T16:29:24.985Z,3.1658
2023-05-10T16:30:27.349Z,2.8367
2023-05-10T16:31:30.048Z,3.0076
2023-05-10T16:32:32.587Z,3.2563
2023-05-10T16:33:35.069Z,3.1513
2023-05-10T16:34:37.619Z,3.3889
2023-05-10T16:39:51.770Z,10.8017
2023-05-10T20:06:19.498Z,9.8437
2023-05-10T20:07:09.557Z,10.6534
2023-05-10T20:08:12.179Z,10.7582
2023-05-10T20:28:30.585Z,8.7698
2023-05-10T20:29:22.931Z,9.5392
2023-05-10T20:30:24.313Z,9.5026
2023-05-10T20:31:27.104Z,9.6362
2023-05-10T20:32:29.522Z,9.6340
2023-05-10T20:33:32.285Z,10.2736
2023-05-10T20:34:34.629Z,11.8592
2023-05-10T20:35:37.184Z,63.7998
2023-05-10T20:36:39.789Z,50.5271
2023-05-10T20:37:42.324Z,58.2201
2023-05-10T20:38:44.955Z,62.7516
2023-05-10T20:39:49.817Z,69.9817
2023-05-10T20:40:50.251Z,77.6889
2023-05-10T20:41:52.631Z,77.1076
2023-05-10T20:42:55.245Z,115.2576
2023-05-10T20:43:57.790Z,132.3950
2023-05-10T20:45:01.545Z,131.3807
2023-05-10T20:46:02.945Z,157.0542
2023-05-10T20:47:05.526Z,110.0326
2023-05-10T20:48:08.160Z,75.3326
2023-05-10T20:49:10.700Z,103.5751
2023-05-10T20:50:13.283Z,107.9061
2023-05-10T20:51:15.968Z,107.4462
2023-05-10T20:52:18.375Z,94.1621
2023-05-10T20:53:20.981Z,86.7883
2023-05-10T20:54:23.547Z,83.5849
2023-05-10T20:55:26.131Z,77.7363
2023-05-10T20:56:28.996Z,71.6696
2023-05-10T20:57:31.304Z,68.5487
2023-05-10T20:58:33.844Z,73.7543
2023-05-10T20:59:36.947Z,72.4081
2023-05-10T21:00:38.986Z,72.2894
2023-05-10T21:01:41.714Z,70.1661
2023-05-10T21:02:44.174Z,69.6215
2023-05-10T21:03:46.771Z,68.0808
2023-05-10T21:04:49.391Z,66.8403
2023-05-10T21:05:51.882Z,66.7759
2023-05-10T21:06:54.432Z,65.4802
2023-05-10T21:07:57.141Z,64.4695
2023-05-10T21:08:59.774Z,64.3172
2023-05-10T21:10:02.171Z,63.7887
2023-05-10T21:11:04.739Z,64.0612
2023-05-10T21:12:07.319Z,63.2394
2023-05-10T21:13:09.869Z,62.5913
2023-05-10T21:14:12.492Z,60.4941
2023-05-10T21:15:15.025Z,57.5501
2023-05-10T21:16:17.651Z,55.7893
2023-05-10T21:17:20.439Z,53.5704
2023-05-10T21:18:22.851Z,51.1979
2023-05-10T21:19:25.298Z,49.6962
2023-05-10T21:20:27.907Z,48.3355
2023-05-10T21:21:30.453Z,47.1153
2023-05-10T21:22:33.050Z,45.6000
2023-05-10T21:23:35.596Z,45.7952
2023-05-10T21:24:38.207Z,45.5407
2023-05-10T21:25:40.764Z,45.2981
2023-05-10T21:26:43.360Z,43.7770
2023-05-10T21:27:45.900Z,44.2562
2023-05-10T21:28:48.837Z,43.6176
2023-05-10T21:29:51.067Z,42.3247
2023-05-10T21:30:53.673Z,38.6048
2023-05-10T21:31:56.237Z,42.3544
2023-05-10T21:32:58.830Z,41.7313
2023-05-10T21:34:01.635Z,41.8411
2023-05-10T21:35:03.950Z,41.0275
2023-05-10T21:36:06.561Z,40.9249
2023-05-10T21:37:09.104Z,40.2337
2023-05-10T21:38:11.796Z,39.5703
2023-05-10T21:39:14.254Z,39.2102
2023-05-10T21:40:17.022Z,38.6718
2023-05-10T21:41:19.398Z,38.9969
2023-05-10T21:42:21.978Z,39.3511
2023-05-10T21:43:24.759Z,37.0277
2023-05-10T21:44:27.091Z,36.9785
2023-05-10T21:45:29.731Z,35.9603
2023-05-10T21:46:32.270Z,36.3158
2023-05-10T21:47:34.881Z,35.6795
2023-05-10T21:48:37.406Z,35.2556
2023-05-10T21:50:42.535Z,33.2467
2023-05-10T21:51:45.135Z,32.1368
2023-05-10T21:52:47.683Z,32.2178
2023-05-10T21:53:50.290Z,31.9468
2023-05-10T21:54:52.831Z,30.4956
2023-05-10T21:55:55.459Z,29.7456
2023-05-10T21:56:57.976Z,30.5810
2023-05-10T21:58:00.588Z,30.9171
2023-05-10T21:59:03.129Z,29.8380
2023-05-10T22:00:05.733Z,29.8455
2023-05-10T22:01:08.317Z,29.9872
2023-05-10T22:02:10.938Z,29.1686
2023-05-10T22:03:13.574Z,28.6749
2023-05-10T22:04:16.019Z,29.3047
2023-05-10T22:05:18.570Z,28.1592
2023-05-10T22:06:21.182Z,28.6365
2023-05-10T22:07:23.720Z,26.8296
2023-05-10T22:08:26.307Z,27.9611
2023-05-10T22:09:28.860Z,27.3679
2023-05-10T22:10:31.466Z,27.2195
2023-05-10T22:11:34.009Z,26.4339
2023-05-10T22:12:36.641Z,26.9308
2023-05-10T22:13:39.165Z,26.2905
2023-05-10T22:14:41.769Z,26.0923
2023-05-10T22:15:44.313Z,24.9819
2023-05-10T22:16:46.985Z,24.9380
2023-05-10T22:17:49.589Z,23.9387
2023-05-10T22:18:52.115Z,23.7806
2023-05-10T22:19:54.611Z,24.2861
2023-05-10T22:20:57.215Z,24.5098
2023-05-10T22:21:59.760Z,24.2836
2023-05-10T22:23:02.367Z,24.6308
2023-05-10T22:24:04.937Z,23.6776
2023-05-10T22:25:07.614Z,23.8256
2023-05-10T22:26:10.114Z,22.6185
2023-05-10T22:27:12.643Z,22.3004
2023-05-10T22:28:15.249Z,23.7318
2023-05-10T22:29:17.827Z,22.0441
2023-05-10T22:30:20.597Z,22.8336
2023-05-10T22:31:22.995Z,23.3750
2023-05-10T22:32:25.642Z,21.9409
2023-05-10T22:33:28.138Z,22.1695
2023-05-10T22:34:30.709Z,22.5503
2023-05-10T22:35:33.265Z,22.3683
2023-05-10T22:36:35.879Z,22.1784
2023-05-10T22:37:38.417Z,21.5907
2023-05-10T22:38:41.044Z,22.0232
2023-05-10T22:39:43.568Z,16.1559
2023-05-10T22:40:46.172Z,15.0985
2023-05-10T22:41:48.722Z,14.7673
2023-05-10T22:42:51.333Z,13.4384
2023-05-10T22:43:53.873Z,13.0125
2023-05-10T22:44:56.469Z,12.2302
2023-05-10T22:45:59.078Z,12.3444
2023-05-10T22:47:01.620Z,10.5700
2023-05-10T22:48:04.280Z,11.1159
2023-05-10T22:49:06.792Z,10.9117
2023-05-10T22:50:09.551Z,9.6067
2023-05-10T22:51:11.969Z,9.6132
2023-05-10T22:52:14.494Z,9.0408
2023-05-10T22:53:17.103Z,9.0871
2023-05-10T22:54:19.655Z,10.1522
2023-05-10T22:55:22.259Z,9.2135
2023-05-10T22:56:24.812Z,9.7770
2023-05-10T22:57:27.406Z,8.7619
2023-05-10T22:58:29.958Z,8.7775
2023-05-10T22:59:32.589Z,8.3355
2023-05-10T23:00:35.143Z,8.0932
2023-05-10T23:01:37.756Z,8.1084
2023-05-10T23:02:40.296Z,7.6791
2023-05-10T23:03:42.866Z,7.5512
2023-05-10T23:04:45.445Z,8.7758
2023-05-10T23:05:48.044Z,7.4353
2023-05-10T23:06:50.634Z,7.8352
2023-05-10T23:07:53.222Z,6.7459
2023-05-10T23:08:55.699Z,6.6797
2023-05-10T23:09:58.335Z,6.1976
2023-05-10T23:11:00.889Z,6.2092
2023-05-10T23:12:03.462Z,5.5954
2023-05-10T23:13:06.016Z,6.2428
2023-05-10T23:14:08.618Z,6.2379
2023-05-10T23:15:11.208Z,5.8369
2023-05-10T23:16:13.856Z,5.6928
2023-05-10T23:17:16.320Z,5.1300
2023-05-10T23:18:18.959Z,5.2252
2023-05-10T23:19:21.470Z,5.3384
2023-05-10T23:20:24.101Z,4.8499
2023-05-10T23:21:26.629Z,4.7983
2023-05-10T23:22:29.271Z,4.9339
2023-05-10T23:23:31.842Z,4.7979
2023-05-10T23:24:34.384Z,4.2120
2023-05-10T23:25:36.951Z,4.4399
2023-05-10T23:26:39.574Z,4.5909
2023-05-10T23:27:42.100Z,4.5975
2023-05-10T23:28:44.716Z,4.3003
2023-05-10T23:29:47.261Z,3.6108
2023-05-10T23:30:49.850Z,4.0619
2023-05-10T23:31:52.438Z,4.0387
2023-05-10T23:32:55.063Z,3.7546
2023-05-10T23:33:57.569Z,3.8688
2023-05-10T23:35:00.169Z,3.3953
2023-05-10T23:36:02.798Z,3.5949
2023-05-10T23:37:05.322Z,3.3390
2023-05-10T23:38:07.883Z,3.1670
2023-05-10T23:39:10.498Z,3.3475
2023-05-10T23:40:13.042Z,3.2413
2023-05-10T23:41:15.666Z,3.2560
2023-05-10T23:42:18.232Z,2.9928
2023-05-10T23:43:20.833Z,3.1210
2023-05-10T23:44:23.402Z,2.7833
2023-05-10T23:45:26.046Z,2.8588
2023-05-10T23:46:28.587Z,3.3821
2023-05-10T23:47:31.167Z,2.9950
2023-05-10T23:48:33.737Z,2.8778
2023-05-10T23:49:36.416Z,2.8373
2023-05-10T23:50:38.858Z,2.6163
2023-05-10T23:51:41.444Z,2.5213
2023-05-10T23:52:44.007Z,2.3254
2023-05-10T23:53:46.603Z,2.3772
2023-05-10T23:54:49.153Z,2.6347
2023-05-10T23:55:51.777Z,2.9070
2023-05-10T23:56:54.338Z,2.3213
2023-05-10T23:57:56.924Z,2.8716
2023-05-10T23:58:59.476Z,2.5291
